createdAt,value
2019-04-20T00:01:58.208Z,4.73
2019-04-20T00:04:33.454Z,4.90
2019-04-20T00:06:59.216Z,6.10
2019-04-20T00:09:31.728Z,5.67
2019-04-20T00:12:07.114Z,6.73
2019-04-20T00:14:35.622Z,7.40
2019-04-20T00:17:05.141Z,6.00
2019-04-20T00:19:40.513Z,7.67
2019-04-20T00:22:17.262Z,4.43
2019-04-20T00:25:12.647Z,5.23
2019-04-20T00:28:16.111Z,5.93
2019-04-20T00:30:50.349Z,5.70
2019-04-20T00:33:09.533Z,5.43
2019-04-20T00:35:33.852Z,4.87
2019-04-20T00:38:05.538Z,5.40
2019-04-20T00:40:36.086Z,9.47
2019-04-20T00:43:06.661Z,5.50
2019-04-20T00:45:41.394Z,5.43
2019-04-20T00:48:19.860Z,6.63
2019-04-20T00:50:48.878Z,5.60
2019-04-20T00:53:21.677Z,4.50
2019-04-20T00:55:42.264Z,5.47
2019-04-20T00:58:20.071Z,5.87
2019-04-20T01:01:07.102Z,5.07
2019-04-20T01:03:27.817Z,5.17
2019-04-20T01:06:27.231Z,5.00
2019-04-20T01:09:05.460Z,5.50
2019-04-20T01:11:40.040Z,4.57
2019-04-20T01:14:09.393Z,6.37
2019-04-20T01:16:45.191Z,9.07
2019-04-20T01:19:07.090Z,6.03
2019-04-20T01:21:36.866Z,5.10
2019-04-20T01:24:08.892Z,5.27
2019-04-20T01:26:45.581Z,6.23
2019-04-20T01:29:21.562Z,6.20
2019-04-20T01:31:55.729Z,6.37
2019-04-20T01:34:26.584Z,5.67
2019-04-20T01:36:55.649Z,5.47
2019-04-20T01:39:23.953Z,4.90
2019-04-20T01:41:45.377Z,5.93
2019-04-20T01:44:18.844Z,5.43
2019-04-20T01:46:51.373Z,7.97
2019-04-20T01:49:22.095Z,4.80
2019-04-20T01:51:57.727Z,5.83
2019-04-20T01:54:31.570Z,6.17
2019-04-20T01:57:09.406Z,7.30
2019-04-20T01:59:44.523Z,4.57
2019-04-20T02:02:27.792Z,4.73
2019-04-20T02:05:10.385Z,6.00
2019-04-20T02:07:39.990Z,5.13
2019-04-20T02:10:06.366Z,5.60
2019-04-20T02:12:37.248Z,5.90
2019-04-20T02:15:12.692Z,6.73
2019-04-20T02:17:43.535Z,4.90
2019-04-20T02:20:31.637Z,6.60
2019-04-20T02:22:57.028Z,5.87
2019-04-20T02:25:12.176Z,4.70
2019-04-20T02:27:47.141Z,7.67
2019-04-20T02:30:48.218Z,5.10
2019-04-20T02:33:27.301Z,5.80
2019-04-20T02:36:15.067Z,4.97
2019-04-20T02:39:21.073Z,4.80
2019-04-20T02:44:16.027Z,4.50
2019-04-20T02:46:40.934Z,5.00
2019-04-20T02:49:19.706Z,4.73
2019-04-20T02:51:56.696Z,5.27
2019-04-20T02:56:51.671Z,5.27
2019-04-20T02:59:45.093Z,5.67
2019-04-20T03:01:31.137Z,5.07
2019-04-20T03:03:50.380Z,5.53
2019-04-20T03:06:26.355Z,4.97
2019-04-20T03:09:11.336Z,4.40
2019-04-20T03:11:49.897Z,5.50
2019-04-20T03:14:10.907Z,4.93
2019-04-20T03:16:35.686Z,4.23
2019-04-20T03:19:08.038Z,4.23
2019-04-20T03:21:44.750Z,5.30
2019-04-20T03:24:20.419Z,4.80
2019-04-20T03:26:55.764Z,4.87
2019-04-20T03:29:42.564Z,4.47
2019-04-20T03:37:26.893Z,6.17
2019-04-20T03:39:47.589Z,5.83
2019-04-20T03:42:05.146Z,4.37
2019-04-20T03:44:35.792Z,5.17
2019-04-20T03:47:08.929Z,5.00
2019-04-20T03:50:02.696Z,5.63
2019-04-20T03:52:58.046Z,3.73
2019-04-20T03:55:40.828Z,6.17
2019-04-20T03:58:18.590Z,3.97
2019-04-20T04:01:14.796Z,4.30
2019-04-20T04:03:53.246Z,6.70
2019-04-20T04:06:15.904Z,4.40
2019-04-20T04:08:41.333Z,4.30
2019-04-20T04:11:21.652Z,5.43
2019-04-20T04:13:37.755Z,6.13
2019-04-20T04:16:11.366Z,4.03
2019-04-20T04:18:47.293Z,4.10
2019-04-20T04:21:21.267Z,4.70
2019-04-20T04:23:58.858Z,5.10
2019-04-20T04:26:30.077Z,4.40
2019-04-20T04:29:08.621Z,6.40
2019-04-20T04:31:36.322Z,4.10
2019-04-20T04:34:14.163Z,4.70
2019-04-20T04:36:36.071Z,4.57
2019-04-20T04:39:16.333Z,4.03
2019-04-20T04:41:39.810Z,5.63
2019-04-20T04:44:08.690Z,6.20
2019-04-20T04:46:24.927Z,4.00
2019-04-20T04:49:05.441Z,5.37
2019-04-20T04:51:38.475Z,4.50
2019-04-20T04:54:03.924Z,5.03
2019-04-20T04:56:30.822Z,4.33
2019-04-20T04:59:02.604Z,4.37
2019-04-20T05:01:33.744Z,4.30
2019-04-20T05:04:25.105Z,4.50
2019-04-20T05:06:48.078Z,4.67
2019-04-20T05:09:10.650Z,6.33
2019-04-20T05:11:36.980Z,4.20
2019-04-20T05:14:11.280Z,4.13
2019-04-20T05:16:54.902Z,5.37
2019-04-20T05:19:30.450Z,10.27
2019-04-20T05:22:21.843Z,24.87
2019-04-20T05:24:56.839Z,36.10
2019-04-20T05:27:59.087Z,9.10
2019-04-20T05:30:07.794Z,3.93
2019-04-20T05:32:48.273Z,4.20
2019-04-20T05:35:40.807Z,4.90
2019-04-20T05:38:06.607Z,5.77
2019-04-20T05:40:32.568Z,8.60
2019-04-20T05:43:27.540Z,20.43
2019-04-20T05:45:52.620Z,10.07
2019-04-20T05:48:26.144Z,4.83
2019-04-20T05:50:56.076Z,4.77
2019-04-20T05:53:37.033Z,6.23
2019-04-20T05:56:03.818Z,4.80
2019-04-20T05:58:33.009Z,6.73
2019-04-20T06:01:06.772Z,4.00
2019-04-20T06:03:37.213Z,4.70
2019-04-20T06:06:10.544Z,5.23
2019-04-20T06:08:51.201Z,4.90
2019-04-20T06:11:17.943Z,4.47
2019-04-20T06:14:05.013Z,4.93
2019-04-20T06:17:15.882Z,6.27
2019-04-20T06:19:39.739Z,4.53
2019-04-20T06:22:28.580Z,14.40
2019-04-20T06:25:16.634Z,7.67
2019-04-20T06:27:40.523Z,11.43
2019-04-20T06:30:06.944Z,34.03
2019-04-20T06:33:24.405Z,40.23
2019-04-20T06:36:07.399Z,55.17
2019-04-20T06:38:38.611Z,72.87
2019-04-20T06:41:02.375Z,61.50
2019-04-20T06:43:20.863Z,9.57
2019-04-20T06:46:01.956Z,6.37
2019-04-20T06:48:29.383Z,4.67
2019-04-20T06:50:53.842Z,4.60
2019-04-20T06:53:44.989Z,4.30
2019-04-20T06:56:17.442Z,4.87
2019-04-20T06:58:53.759Z,5.93
2019-04-20T07:01:21.831Z,4.57
2019-04-20T07:04:02.265Z,4.47
2019-04-20T07:06:38.346Z,7.10
2019-04-20T07:09:01.776Z,5.60
2019-04-20T07:11:25.304Z,5.67
2019-04-20T07:13:43.441Z,4.60
2019-04-20T07:16:53.123Z,4.67
2019-04-20T07:19:32.610Z,4.57
2019-04-20T07:22:18.525Z,6.33
2019-04-20T07:24:40.546Z,5.03
2019-04-20T07:27:10.366Z,5.23
2019-04-20T07:29:43.260Z,6.17
2019-04-20T07:32:06.379Z,4.97
2019-04-20T07:34:40.198Z,7.07
2019-04-20T07:39:48.407Z,6.30
2019-04-20T07:42:27.101Z,5.10
2019-04-20T07:44:57.971Z,5.27
2019-04-20T07:47:32.818Z,6.07
2019-04-20T07:49:52.718Z,19.70
2019-04-20T07:52:01.916Z,6.23
2019-04-20T07:55:13.632Z,10.60
2019-04-20T07:57:24.729Z,6.63
2019-04-20T07:59:59.131Z,5.77
2019-04-20T08:03:03.793Z,6.30
2019-04-20T08:05:40.540Z,7.13
2019-04-20T08:08:18.105Z,5.27
2019-04-20T08:10:51.662Z,5.77
2019-04-20T08:13:32.957Z,9.27
2019-04-20T08:15:57.099Z,17.80
2019-04-20T08:20:57.630Z,5.13
2019-04-20T08:23:32.008Z,7.47
2019-04-20T08:25:50.084Z,9.13
2019-04-20T08:28:34.914Z,6.87
2019-04-20T08:31:29.170Z,5.80
2019-04-20T08:34:28.246Z,5.10
2019-04-20T08:36:39.120Z,8.47
2019-04-20T08:39:23.764Z,6.57
2019-04-20T08:41:45.122Z,6.63
2019-04-20T08:44:38.070Z,6.23
2019-04-20T08:46:55.821Z,4.80
2019-04-20T08:49:20.423Z,4.80
2019-04-20T08:51:59.981Z,5.07
2019-04-20T08:54:16.747Z,4.03
2019-04-20T08:56:36.073Z,4.90
2019-04-20T08:59:02.282Z,6.33
2019-04-20T09:01:35.822Z,4.80
2019-04-20T09:04:12.471Z,5.47
2019-04-20T09:06:49.070Z,4.90
2019-04-20T09:09:37.912Z,4.67
2019-04-20T09:11:54.467Z,7.17
2019-04-20T09:14:21.379Z,5.40
2019-04-20T09:17:01.902Z,5.37
2019-04-20T09:19:37.962Z,6.60
2019-04-20T09:22:28.054Z,5.87
2019-04-20T09:25:16.137Z,11.30
2019-04-20T09:27:26.861Z,11.43
2019-04-20T09:30:03.374Z,5.13
2019-04-20T09:32:39.606Z,8.67
2019-04-20T09:35:13.613Z,5.10
2019-04-20T09:37:49.713Z,5.23
2019-04-20T09:40:33.542Z,4.97
2019-04-20T09:42:58.606Z,6.03
2019-04-20T09:45:44.365Z,4.70
2019-04-20T09:48:15.749Z,4.73
2019-04-20T09:51:07.959Z,4.60
2019-04-20T09:53:30.136Z,6.30
2019-04-20T09:56:04.668Z,5.57
2019-04-20T09:58:31.099Z,6.43
2019-04-20T10:01:06.764Z,6.60
2019-04-20T10:03:22.820Z,4.93
2019-04-20T10:05:51.983Z,6.10
2019-04-20T10:08:21.884Z,4.40
2019-04-20T10:10:52.933Z,5.80
2019-04-20T10:13:25.084Z,7.07
2019-04-20T10:15:55.435Z,5.00
2019-04-20T10:18:25.939Z,6.97
2019-04-20T10:20:57.808Z,4.63
2019-04-20T10:23:27.117Z,5.83
2019-04-20T10:25:56.597Z,5.77
2019-04-20T10:28:27.692Z,5.10
2019-04-20T10:30:58.980Z,5.00
2019-04-20T10:33:28.419Z,5.13
2019-04-20T10:35:57.767Z,5.60
2019-04-20T10:38:33.711Z,5.27
2019-04-20T10:41:08.299Z,4.33
2019-04-20T10:43:33.236Z,6.87
2019-04-20T10:46:02.734Z,4.87
2019-04-20T10:48:40.245Z,5.27
2019-04-20T10:51:03.278Z,5.30
2019-04-20T10:53:32.414Z,5.63
2019-04-20T10:56:01.594Z,5.53
2019-04-20T10:58:31.745Z,4.50
2019-04-20T11:01:03.940Z,4.47
2019-04-20T11:03:34.469Z,9.80
2019-04-20T11:06:04.802Z,5.63
2019-04-20T11:11:23.814Z,4.70
2019-04-20T11:13:48.095Z,5.00
2019-04-20T11:16:18.078Z,4.50
2019-04-20T11:18:47.363Z,4.00
2019-04-20T11:21:20.061Z,4.00
2019-04-20T11:23:49.981Z,4.10
2019-04-20T11:26:20.248Z,4.57
2019-04-20T11:28:50.389Z,4.60
2019-04-20T11:31:40.891Z,5.03
2019-04-20T11:36:57.160Z,6.20
2019-04-20T11:39:27.125Z,4.77
2019-04-20T11:41:56.525Z,4.17
2019-04-20T11:44:29.413Z,4.37
2019-04-20T11:46:58.709Z,5.43
2019-04-20T11:49:28.023Z,5.10
2019-04-20T11:52:01.558Z,4.13
2019-04-20T11:54:34.475Z,4.73
2019-04-20T11:57:04.959Z,4.77
2019-04-20T11:59:34.978Z,6.30
2019-04-20T12:02:29.578Z,4.33
2019-04-20T12:05:12.792Z,5.63
2019-04-20T12:07:40.573Z,9.47
2019-04-20T12:10:15.841Z,5.47
2019-04-20T12:12:46.728Z,4.80
2019-04-20T12:15:14.776Z,4.43
2019-04-20T12:17:44.000Z,4.97
2019-04-20T12:20:14.546Z,4.60
2019-04-20T12:22:46.281Z,4.77
2019-04-20T12:25:18.197Z,5.53
2019-04-20T12:27:52.580Z,4.30
2019-04-20T12:30:19.591Z,5.57
2019-04-20T12:32:55.305Z,4.50
2019-04-20T12:35:22.352Z,6.03
2019-04-20T12:37:51.529Z,4.20
2019-04-20T12:40:23.883Z,4.23
2019-04-20T12:42:53.283Z,6.47
2019-04-20T12:45:23.808Z,6.20
2019-04-20T12:47:53.480Z,7.37
2019-04-20T12:50:23.801Z,4.23
2019-04-20T12:52:56.645Z,4.87
2019-04-20T12:55:26.384Z,4.77
2019-04-20T12:57:56.690Z,5.23
2019-04-20T13:00:46.215Z,4.97
2019-04-20T13:03:15.510Z,5.17
2019-04-20T13:05:45.830Z,4.80
2019-04-20T13:08:23.356Z,4.80
2019-04-20T13:10:50.735Z,4.87
2019-04-20T13:13:38.753Z,6.03
2019-04-20T13:16:22.605Z,6.63
2019-04-20T13:18:55.375Z,5.33
2019-04-20T13:21:27.111Z,5.57
2019-04-20T13:23:56.498Z,5.80
2019-04-20T13:26:46.862Z,5.03
2019-04-20T13:29:20.194Z,6.80
2019-04-20T13:31:52.043Z,7.37
2019-04-20T13:34:20.211Z,5.57
2019-04-20T13:36:50.641Z,6.40
2019-04-20T13:39:19.962Z,7.73
2019-04-20T13:42:00.669Z,4.67
2019-04-20T13:44:20.098Z,5.00
2019-04-20T13:46:49.262Z,4.83
2019-04-20T13:49:18.799Z,13.80
2019-04-20T13:51:48.726Z,7.73
2019-04-20T13:54:24.351Z,5.97
2019-04-20T13:56:52.611Z,4.87
2019-04-20T13:59:37.921Z,4.47
2019-04-20T14:02:28.889Z,9.77
2019-04-20T14:05:00.079Z,4.93
2019-04-20T14:07:29.531Z,4.93
2019-04-20T14:09:59.769Z,5.93
2019-04-20T14:12:36.701Z,4.50
2019-04-20T14:15:02.908Z,4.83
2019-04-20T14:17:33.003Z,5.77
2019-04-20T14:20:09.793Z,5.13
2019-04-20T14:22:35.269Z,4.97
2019-04-20T14:25:05.107Z,4.63
2019-04-20T14:27:40.079Z,6.13
2019-04-20T14:30:09.349Z,3.87
2019-04-20T14:32:40.832Z,4.70
2019-04-20T14:35:11.344Z,7.63
2019-04-20T14:37:41.665Z,5.40
2019-04-20T14:40:12.497Z,13.63
2019-04-20T14:42:48.542Z,5.87
2019-04-20T14:45:14.455Z,7.13
2019-04-20T14:47:43.869Z,4.73
2019-04-20T14:50:14.237Z,26.23
2019-04-20T14:52:45.140Z,40.33
2019-04-20T14:55:16.949Z,6.10
2019-04-20T14:57:45.622Z,3.90
2019-04-20T15:00:29.916Z,4.37
2019-04-20T15:03:04.068Z,5.43
2019-04-20T15:05:33.142Z,49.00
2019-04-20T15:08:02.759Z,7.30
2019-04-20T15:10:33.398Z,3.93
2019-04-20T15:13:04.672Z,15.27
2019-04-20T15:15:34.580Z,3.70
2019-04-20T15:18:11.372Z,4.20
2019-04-20T15:20:45.710Z,5.60
2019-04-20T15:23:23.675Z,5.07
2019-04-20T15:25:52.998Z,4.57
2019-04-20T15:28:22.049Z,5.10
2019-04-20T15:30:52.094Z,4.77
2019-04-20T15:33:21.215Z,4.03
2019-04-20T15:35:50.396Z,5.10
2019-04-20T15:38:20.837Z,3.70
2019-04-20T15:40:53.048Z,4.47
2019-04-20T15:43:24.982Z,6.27
2019-04-20T15:45:53.289Z,4.03
2019-04-20T15:48:24.204Z,5.20
2019-04-20T15:50:54.027Z,4.87
2019-04-20T15:53:23.926Z,4.63
2019-04-20T15:55:53.303Z,3.70
2019-04-20T15:58:22.936Z,4.60
2019-04-20T16:00:52.767Z,3.70
2019-04-20T16:03:47.686Z,4.87
2019-04-20T16:06:23.123Z,5.87
2019-04-20T16:08:54.554Z,6.30
2019-04-20T16:11:26.642Z,6.93
2019-04-20T16:13:57.729Z,6.90
2019-04-20T16:16:27.834Z,4.47
2019-04-20T16:18:59.108Z,4.67
2019-04-20T16:21:31.648Z,5.20
2019-04-20T16:24:04.457Z,4.13
2019-04-20T16:26:41.933Z,4.30
2019-04-20T16:29:13.818Z,7.13
2019-04-20T16:31:46.388Z,7.50
2019-04-20T16:34:14.104Z,5.33
2019-04-20T16:36:44.513Z,4.30
2019-04-20T16:39:14.428Z,5.03
2019-04-20T16:41:48.539Z,4.37
2019-04-20T16:44:17.791Z,4.07
2019-04-20T16:46:48.253Z,5.07
2019-04-20T16:49:17.302Z,5.30
2019-04-20T16:51:47.454Z,4.67
2019-04-20T16:54:17.614Z,5.33
2019-04-20T16:56:46.861Z,4.37
2019-04-20T16:59:17.838Z,4.77
2019-04-20T17:01:48.494Z,9.17
2019-04-20T17:04:22.387Z,8.03
2019-04-20T17:07:08.518Z,5.67
2019-04-20T17:09:37.979Z,6.93
2019-04-20T17:12:07.798Z,4.97
2019-04-20T17:14:39.941Z,6.43
2019-04-20T17:17:11.585Z,5.87
2019-04-20T17:19:41.772Z,5.53
2019-04-20T17:22:14.887Z,4.50
2019-04-20T17:24:45.175Z,3.83
2019-04-20T17:27:35.115Z,5.47
2019-04-20T17:30:17.898Z,3.67
2019-04-20T17:32:45.701Z,5.47
2019-04-20T17:35:25.785Z,5.90
2019-04-20T17:37:48.664Z,3.10
2019-04-20T17:40:35.746Z,3.83
2019-04-20T17:42:59.625Z,4.23
2019-04-20T17:45:32.345Z,4.80
2019-04-20T17:48:08.843Z,7.10
2019-04-20T17:50:41.450Z,4.50
2019-04-20T17:53:07.226Z,5.10
2019-04-20T17:55:40.431Z,5.77
2019-04-20T17:58:05.749Z,4.90
2019-04-20T18:00:52.879Z,6.27
2019-04-20T18:03:58.511Z,3.70
2019-04-20T18:06:15.017Z,5.77
2019-04-20T18:08:45.413Z,4.93
2019-04-20T18:11:03.963Z,4.93
2019-04-20T18:13:29.102Z,5.57
2019-04-20T18:16:28.394Z,4.83
2019-04-20T18:19:15.647Z,5.80
2019-04-20T18:21:41.675Z,4.53
2019-04-20T18:24:42.413Z,4.57
2019-04-20T18:27:07.159Z,3.33
2019-04-20T18:29:42.891Z,5.07
2019-04-20T18:32:11.795Z,6.27
2019-04-20T18:35:00.817Z,14.13
2019-04-20T18:37:28.833Z,4.37
2019-04-20T18:40:06.201Z,3.70
2019-04-20T18:42:38.444Z,4.97
2019-04-20T18:45:23.131Z,4.77
2019-04-20T18:47:49.570Z,7.27
2019-04-20T18:50:10.738Z,4.37
2019-04-20T18:52:35.727Z,3.37
2019-04-20T18:55:06.351Z,5.23
2019-04-20T18:57:36.722Z,5.70
2019-04-20T19:00:07.931Z,5.53
2019-04-20T19:02:41.144Z,4.13
2019-04-20T19:05:09.166Z,3.57
2019-04-20T19:07:46.569Z,3.87
2019-04-20T19:10:21.034Z,5.57
2019-04-20T19:12:52.294Z,3.23
2019-04-20T19:15:56.535Z,4.40
2019-04-20T19:18:50.760Z,4.07
2019-04-20T19:21:06.874Z,3.20
2019-04-20T19:23:40.585Z,4.07
2019-04-20T19:26:12.285Z,4.87
2019-04-20T19:28:44.475Z,4.03
2019-04-20T19:31:27.796Z,4.43
2019-04-20T19:34:02.106Z,5.37
2019-04-20T19:36:25.615Z,3.17
2019-04-20T19:38:56.298Z,4.00
2019-04-20T19:41:30.119Z,5.80
2019-04-20T19:44:02.528Z,5.73
2019-04-20T19:46:46.310Z,3.50
2019-04-20T19:48:56.685Z,6.63
2019-04-20T19:51:43.520Z,5.10
2019-04-20T19:54:15.264Z,6.57
2019-04-20T19:56:38.764Z,5.87
2019-04-20T19:59:05.112Z,5.53
2019-04-20T20:01:22.006Z,3.70
2019-04-20T20:03:57.506Z,4.33
2019-04-20T20:06:29.140Z,5.17
2019-04-20T20:08:58.055Z,5.60
2019-04-20T20:11:30.425Z,7.60
2019-04-20T20:13:57.156Z,5.77
2019-04-20T20:16:33.650Z,7.80
2019-04-20T20:19:07.657Z,7.37
2019-04-20T20:21:45.743Z,9.63
2019-04-20T20:24:00.074Z,10.93
2019-04-20T20:26:35.220Z,7.47
2019-04-20T20:29:09.657Z,7.80
2019-04-20T20:31:48.590Z,8.93
2019-04-20T20:34:12.908Z,9.90
2019-04-20T20:36:43.524Z,6.13
2019-04-20T20:39:15.731Z,8.03
2019-04-20T20:41:49.148Z,8.50
2019-04-20T20:44:22.552Z,7.30
2019-04-20T20:46:53.455Z,8.57
2019-04-20T20:49:28.657Z,6.40
2019-04-20T20:52:02.753Z,6.40
2019-04-20T20:54:26.939Z,8.73
2019-04-20T20:56:51.422Z,8.87
2019-04-20T20:59:26.852Z,8.53
2019-04-20T21:01:51.753Z,6.13
2019-04-20T21:04:15.676Z,6.90
2019-04-20T21:06:44.822Z,6.13
2019-04-20T21:09:14.445Z,6.90
2019-04-20T21:11:44.315Z,7.33
2019-04-20T21:14:21.054Z,6.63
2019-04-20T21:16:53.132Z,8.90
2019-04-20T21:19:33.903Z,7.20
2019-04-20T21:21:57.088Z,8.70
2019-04-20T21:24:31.948Z,7.53
2019-04-20T21:27:09.960Z,8.90
2019-04-20T21:29:40.856Z,7.27
2019-04-20T21:32:11.883Z,6.00
2019-04-20T21:34:36.483Z,5.90
2019-04-20T21:37:11.610Z,7.73
2019-04-20T21:39:44.130Z,6.70
2019-04-20T21:42:12.544Z,7.63
2019-04-20T21:44:42.905Z,7.67
2019-04-20T21:47:15.699Z,6.97
2019-04-20T21:49:54.094Z,6.37
2019-04-20T21:52:23.466Z,10.57
2019-04-20T21:54:46.087Z,8.40
2019-04-20T21:57:18.011Z,8.83
2019-04-20T21:59:50.910Z,8.13
2019-04-20T22:02:21.680Z,6.77
2019-04-20T22:04:49.299Z,8.30
2019-04-20T22:07:20.884Z,5.77
2019-04-20T22:09:54.579Z,9.00
2019-04-20T22:12:23.598Z,7.07
2019-04-20T22:14:58.764Z,6.10
2019-04-20T22:17:28.902Z,8.90
2019-04-20T22:20:07.063Z,7.60
2019-04-20T22:22:42.400Z,7.37
2019-04-20T22:25:12.163Z,6.23
2019-04-20T22:27:34.576Z,9.77
2019-04-20T22:29:59.968Z,6.90
2019-04-20T22:32:30.060Z,6.27
2019-04-20T22:35:03.210Z,9.33
2019-04-20T22:37:38.367Z,5.97
2019-04-20T22:40:11.774Z,6.93
2019-04-20T22:42:46.479Z,7.63
2019-04-20T22:45:15.044Z,7.47
2019-04-20T22:47:42.690Z,5.80
2019-04-20T22:50:25.524Z,6.13
2019-04-20T22:52:52.481Z,8.13
2019-04-20T22:55:39.717Z,7.80
2019-04-20T22:57:53.422Z,9.03
2019-04-20T23:00:29.225Z,6.33
2019-04-20T23:02:48.876Z,5.10
2019-04-20T23:05:18.597Z,7.70
2019-04-20T23:07:48.698Z,9.00
2019-04-20T23:10:25.293Z,6.40
2019-04-20T23:12:52.933Z,6.57
2019-04-20T23:15:20.516Z,6.77
2019-04-20T23:17:52.078Z,8.53
2019-04-20T23:20:26.705Z,5.83
2019-04-20T23:22:52.946Z,8.87
2019-04-20T23:25:22.962Z,9.60
2019-04-20T23:28:02.355Z,7.97
2019-04-20T23:30:29.161Z,6.37
2019-04-20T23:32:56.061Z,9.30
2019-04-20T23:35:26.722Z,8.63
2019-04-20T23:38:02.852Z,6.73
2019-04-20T23:40:27.809Z,8.40
2019-04-20T23:43:10.208Z,7.53
2019-04-20T23:45:54.822Z,8.20
2019-04-20T23:48:46.510Z,7.00
2019-04-20T23:51:39.062Z,8.27
2019-04-20T23:53:56.449Z,8.73
2019-04-20T23:56:20.170Z,8.73
2019-04-20T23:58:52.787Z,8.07
